Time;durP1;ratioP1;P1;durP2;ratioP2;P2;SDS_P1;SDS_P2;PMS_P1;PMS_P2;Temp;Humidity;BMP_temperature;BMP_pressure;BME280_temperature;BME280_humidity;BME280_pressure;Samples;Min_cycle;Max_cycle;Signal;HPM_P1;HPM_P2
2021/12/17 00:00:59;;;;;;;38.88;18.30;;;5.30;99.90;;;;;;5068493;28;20540;-43
2021/12/17 00:04:13;;;;;;;36.20;18.40;;;5.30;99.90;;;;;;5069854;28;20013;-43
2021/12/17 00:08:52;;;;;;;39.72;19.40;;;5.30;99.90;;;;;;5068982;28;20213;-43
2021/12/17 00:11:18;;;;;;;40.58;19.52;;;5.30;99.90;;;;;;5067049;28;20020;-43
2021/12/17 00:13:46;;;;;;;43.03;18.80;;;5.20;99.90;;;;;;5069783;28;20035;-43
2021/12/17 00:16:19;;;;;;;38.40;18.67;;;5.20;99.90;;;;;;5071045;28;20025;-44
2021/12/17 00:49:05;;;;;;;52.83;23.77;;;5.10;99.90;;;;;;5053299;28;20490;-44
2021/12/17 00:54:08;;;;;;;64.20;27.48;;;5.00;99.90;;;;;;5079911;28;20027;-44
2021/12/17 00:56:34;;;;;;;52.55;24.15;;;5.00;99.90;;;;;;5090532;28;20474;-43
2021/12/17 00:59:00;;;;;;;61.22;25.40;;;5.00;99.90;;;;;;5089802;28;20085;-45
2021/12/17 01:01:26;;;;;;;63.78;25.67;;;5.00;99.90;;;;;;5089239;28;20504;-45
2021/12/17 01:03:52;;;;;;;51.03;23.70;;;5.00;99.90;;;;;;5090258;28;20024;-43
2021/12/17 01:06:18;;;;;;;63.92;27.70;;;5.10;99.90;;;;;;5090377;28;20027;-44
2021/12/17 01:08:44;;;;;;;63.72;26.55;;;5.00;99.90;;;;;;5088014;28;20020;-43
2021/12/17 01:11:09;;;;;;;59.55;24.20;;;5.10;99.90;;;;;;5090307;28;20024;-43
2021/12/17 01:13:39;;;;;;;57.40;25.52;;;5.10;99.90;;;;;;5090194;28;20032;-44
2021/12/17 01:16:04;;;;;;;56.45;26.15;;;5.10;99.90;;;;;;5090281;28;20028;-44
2021/12/17 01:18:47;;;;;;;52.97;23.25;;;5.20;99.90;;;;;;5088443;28;20367;-44
2021/12/17 01:40:45;;;;;;;49.45;23.00;;;5.50;99.90;;;;;;5089059;28;20089;-44
2021/12/17 01:42:41;;;;;;;59.92;24.42;;;5.50;99.90;;;;;;5089584;28;20032;-44
2021/12/17 01:45:07;;;;;;;52.38;24.45;;;5.60;99.90;;;;;;5089430;28;20032;-43
2021/12/17 01:47:34;;;;;;;53.72;23.88;;;5.60;99.90;;;;;;5088897;28;20135;-46
2021/12/17 01:55:49;;;;;;;53.92;22.25;;;5.60;99.90;;;;;;5076220;28;20042;-44
2021/12/17 02:00:59;;;;;;;54.78;23.42;;;5.70;99.90;;;;;;5089215;28;20073;-44
2021/12/17 02:03:25;;;;;;;48.83;22.40;;;5.70;99.90;;;;;;5089032;28;20024;-44
2021/12/17 02:05:51;;;;;;;47.17;22.42;;;5.80;99.90;;;;;;5089037;28;20039;-44
2021/12/17 02:08:16;;;;;;;49.95;22.20;;;5.80;99.90;;;;;;5088144;28;20017;-44
2021/12/17 02:32:01;;;;;;;42.50;22.15;;;6.20;99.90;;;;;;5089003;28;20107;-45
2021/12/17 02:37:18;;;;;;;42.13;19.90;;;6.20;99.90;;;;;;5087897;28;20161;-45
2021/12/17 02:45:30;;;;;;;42.88;21.25;;;6.30;99.90;;;;;;5088835;28;20277;-44
2021/12/17 02:45:32;;;;;;;41.05;21.50;;;6.30;99.90;;;;;;5088447;28;20040;-45
2021/12/17 02:48:16;;;;;;;39.70;20.88;;;6.40;99.90;;;;;;5087984;28;20489;-45
2021/12/17 02:50:48;;;;;;;37.47;20.30;;;6.40;99.90;;;;;;5088574;28;20104;-44
2021/12/17 02:53:15;;;;;;;35.47;19.30;;;6.40;99.90;;;;;;5086178;28;20015;-43
2021/12/17 02:55:48;;;;;;;41.90;19.85;;;6.50;99.90;;;;;;5087469;28;20031;-44
2021/12/17 02:58:14;;;;;;;38.10;20.27;;;6.40;99.90;;;;;;5092285;28;20020;-44
2021/12/17 03:00:42;;;;;;;43.83;20.05;;;6.50;99.90;;;;;;5092589;28;20494;-44
2021/12/17 03:03:09;;;;;;;43.33;21.13;;;6.50;99.90;;;;;;5108273;28;20478;-45
2021/12/17 03:05:39;;;;;;;34.55;19.13;;;6.40;99.90;;;;;;5092441;28;20039;-43
2021/12/17 03:08:07;;;;;;;39.30;20.08;;;6.50;99.90;;;;;;5091431;28;20051;-42
2021/12/17 03:10:33;;;;;;;40.90;20.90;;;6.50;99.90;;;;;;5092346;28;20462;-43
2021/12/17 03:13:02;;;;;;;39.50;20.60;;;6.50;99.90;;;;;;5091053;28;20038;-43
2021/12/17 03:23:39;;;;;;;41.85;21.27;;;6.50;99.90;;;;;;5086672;28;20030;-42
2021/12/17 03:26:08;;;;;;;38.05;21.13;;;6.50;99.90;;;;;;5089075;28;20112;-42
2021/12/17 03:28:33;;;;;;;37.85;18.75;;;6.50;99.90;;;;;;5090046;28;20020;-42
2021/12/17 03:31:00;;;;;;;42.35;20.42;;;6.40;99.90;;;;;;5091923;28;20440;-43
2021/12/17 03:33:26;;;;;;;43.30;22.13;;;6.40;99.90;;;;;;5091849;28;20401;-43
2021/12/17 03:35:52;;;;;;;45.60;22.38;;;6.40;99.90;;;;;;5092032;28;20027;-42
2021/12/17 03:38:17;;;;;;;43.83;22.00;;;6.30;99.90;;;;;;5089580;28;20213;-42
2021/12/17 03:40:45;;;;;;;40.95;21.60;;;6.30;99.90;;;;;;5091868;28;20028;-42
2021/12/17 03:43:12;;;;;;;34.95;18.88;;;6.20;99.90;;;;;;5091733;28;20016;-42
2021/12/17 03:45:42;;;;;;;37.03;19.95;;;6.20;99.90;;;;;;5091712;28;20107;-42
2021/12/17 03:48:08;;;;;;;33.05;19.00;;;6.20;99.90;;;;;;5091410;28;20446;-43
2021/12/17 03:50:36;;;;;;;38.47;20.52;;;6.20;99.90;;;;;;5091673;28;20021;-42
2021/12/17 03:53:04;;;;;;;39.67;21.30;;;6.20;99.90;;;;;;5086005;28;20016;-43
2021/12/17 03:55:30;;;;;;;44.33;23.02;;;6.20;99.90;;;;;;5084304;28;20028;-42
2021/12/17 03:58:00;;;;;;;39.80;20.08;;;6.10;99.90;;;;;;5090460;28;20036;-42
2021/12/17 04:00:26;;;;;;;39.40;20.67;;;6.20;99.90;;;;;;5090226;28;20032;-42
2021/12/17 04:02:52;;;;;;;42.80;21.65;;;6.20;99.90;;;;;;5090156;28;20536;-43
2021/12/17 04:05:18;;;;;;;45.72;22.40;;;6.20;99.90;;;;;;5091013;28;20032;-42
2021/12/17 04:07:43;;;;;;;45.08;22.10;;;6.20;99.90;;;;;;5090723;28;20258;-42
2021/12/17 04:10:11;;;;;;;41.33;20.73;;;6.20;99.90;;;;;;5091380;28;20020;-42
2021/12/17 04:15:30;;;;;;;41.30;20.85;;;6.20;99.90;;;;;;5091582;28;20085;-43
2021/12/17 04:17:58;;;;;;;35.08;18.75;;;6.20;99.90;;;;;;5090736;28;20032;-43
2021/12/17 04:20:23;;;;;;;39.42;20.27;;;6.20;99.90;;;;;;5091145;28;20028;-45
2021/12/17 04:22:49;;;;;;;47.05;23.13;;;6.30;99.90;;;;;;5090408;28;20057;-44
2021/12/17 04:25:14;;;;;;;48.88;22.85;;;6.30;99.90;;;;;;5082341;28;20342;-43
2021/12/17 04:27:40;;;;;;;44.13;21.70;;;6.30;99.90;;;;;;5088894;28;20470;-43
2021/12/17 04:30:05;;;;;;;41.88;20.35;;;6.30;99.90;;;;;;5091070;28;20028;-42
2021/12/17 04:32:31;;;;;;;45.83;22.67;;;6.40;99.90;;;;;;5090789;28;20031;-42
2021/12/17 04:34:57;;;;;;;43.35;20.67;;;6.40;99.90;;;;;;5102721;28;20711;-45
2021/12/17 04:37:22;;;;;;;42.75;22.08;;;6.30;99.90;;;;;;5081215;28;20016;-43
2021/12/17 04:39:48;;;;;;;42.85;22.45;;;6.40;99.90;;;;;;5090555;28;20107;-42
2021/12/17 04:42:34;;;;;;;42.55;20.58;;;6.40;99.90;;;;;;5090551;28;20638;-42
2021/12/17 04:45:00;;;;;;;42.33;20.95;;;6.40;99.90;;;;;;5090587;28;20418;-43
2021/12/17 04:58:22;;;;;;;46.42;22.15;;;6.50;99.90;;;;;;5089718;28;20030;-44
2021/12/17 05:00:47;;;;;;;43.33;21.27;;;6.50;99.90;;;;;;5090188;28;20036;-44
2021/12/17 05:03:13;;;;;;;38.72;19.63;;;6.50;99.90;;;;;;5090142;28;20028;-45
2021/12/17 05:05:39;;;;;;;41.38;21.08;;;6.50;99.90;;;;;;5090167;28;20107;-43
2021/12/17 05:08:10;;;;;;;34.97;17.70;;;6.50;99.90;;;;;;5089103;28;20517;-44
2021/12/17 05:21:23;;;;;;;39.40;20.60;;;6.60;99.90;;;;;;5089987;28;20132;-44
2021/12/17 05:23:51;;;;;;;40.25;20.17;;;6.60;99.90;;;;;;5082040;28;20087;-43
2021/12/17 05:26:19;;;;;;;42.25;21.27;;;6.60;99.90;;;;;;5073182;28;20069;-43
2021/12/17 05:28:45;;;;;;;36.78;19.77;;;6.60;99.90;;;;;;5089099;28;20023;-44
2021/12/17 05:31:10;;;;;;;42.53;20.95;;;6.70;99.90;;;;;;5089657;28;20099;-43
2021/12/17 05:33:36;;;;;;;42.85;20.13;;;6.70;99.90;;;;;;5089887;28;20024;-44
2021/12/17 05:36:02;;;;;;;39.47;19.77;;;6.70;99.90;;;;;;5089510;28;20024;-43
2021/12/17 05:38:28;;;;;;;37.88;18.50;;;6.70;99.90;;;;;;5088554;28;20542;-45
2021/12/17 05:40:55;;;;;;;38.38;19.63;;;6.70;99.90;;;;;;5089387;28;20024;-43
2021/12/17 05:43:21;;;;;;;44.13;20.20;;;6.70;99.90;;;;;;5089556;28;20016;-43
2021/12/17 05:46:02;;;;;;;45.42;20.85;;;6.70;99.90;;;;;;5089352;28;20028;-43
2021/12/17 05:48:27;;;;;;;37.65;18.80;;;6.70;99.90;;;;;;5088916;28;20028;-43
2021/12/17 05:50:55;;;;;;;42.17;20.00;;;6.70;99.90;;;;;;5078332;28;20017;-43
2021/12/17 05:53:22;;;;;;;40.50;20.60;;;6.70;99.90;;;;;;5072530;28;20024;-43
2021/12/17 05:55:48;;;;;;;36.40;18.05;;;6.70;99.90;;;;;;5078915;28;20085;-43
2021/12/17 05:58:13;;;;;;;36.83;17.98;;;6.70;99.90;;;;;;5068416;28;20150;-43
2021/12/17 06:00:41;;;;;;;39.17;19.48;;;6.80;99.90;;;;;;5068506;28;20032;-44
2021/12/17 06:03:07;;;;;;;44.08;20.85;;;6.70;99.90;;;;;;5068690;28;20115;-44
2021/12/17 06:05:32;;;;;;;46.97;21.70;;;6.80;99.90;;;;;;5068760;28;20116;-43
2021/12/17 06:07:59;;;;;;;46.08;21.10;;;6.80;99.90;;;;;;5067654;28;20017;-43
2021/12/17 06:10:24;;;;;;;39.15;20.73;;;6.80;99.90;;;;;;5068669;28;20028;-43
2021/12/17 06:12:50;;;;;;;47.38;21.38;;;6.80;99.90;;;;;;5068849;28;20470;-43
2021/12/17 06:15:18;;;;;;;57.13;26.08;;;6.80;99.90;;;;;;5068726;28;20196;-45
2021/12/17 06:17:44;;;;;;;55.92;24.48;;;6.80;99.90;;;;;;5068113;28;20032;-43
2021/12/17 06:20:12;;;;;;;46.55;23.05;;;6.80;99.90;;;;;;5068988;28;20292;-44
2021/12/17 06:22:38;;;;;;;55.67;25.88;;;6.80;99.90;;;;;;5068431;28;20040;-43
2021/12/17 06:25:05;;;;;;;56.63;25.83;;;6.80;99.90;;;;;;5076216;28;20025;-44
2021/12/17 06:27:31;;;;;;;49.47;22.67;;;6.80;99.90;;;;;;5067117;28;20033;-44
2021/12/17 06:29:57;;;;;;;50.47;24.17;;;6.80;99.90;;;;;;5066875;28;20501;-44
2021/12/17 06:32:23;;;;;;;59.03;27.20;;;6.80;99.90;;;;;;5068442;28;20021;-44
2021/12/17 06:34:50;;;;;;;51.38;23.90;;;6.80;99.90;;;;;;5066850;28;20552;-44
2021/12/17 06:37:16;;;;;;;53.95;23.98;;;6.70;99.90;;;;;;5067879;28;20043;-43
2021/12/17 06:39:42;;;;;;;50.33;23.20;;;6.80;99.90;;;;;;5068151;28;20074;-44
2021/12/17 06:42:09;;;;;;;46.85;22.05;;;6.80;99.90;;;;;;5068021;28;20056;-44
2021/12/17 06:44:34;;;;;;;48.60;20.80;;;6.80;99.90;;;;;;5068640;28;20112;-44
2021/12/17 06:47:06;;;;;;;53.58;21.05;;;6.70;99.90;;;;;;5067792;28;20583;-44
2021/12/17 06:55:12;;;;;;;54.05;22.25;;;6.80;99.90;;;;;;5069009;28;20036;-43
2021/12/17 07:10:57;;;;;;;55.38;23.60;;;6.70;99.90;;;;;;5068545;28;20031;-44
2021/12/17 07:19:40;;;;;;;66.82;25.40;;;6.80;99.90;;;;;;5067744;28;20040;-43
2021/12/17 07:22:05;;;;;;;57.22;23.58;;;6.80;99.90;;;;;;5068007;28;20025;-42
2021/12/17 07:40:08;;;;;;;19.67;8.48;;;6.80;99.90;;;;;;5091741;28;20450;-43
2021/12/17 07:42:34;;;;;;;11.27;5.53;;;6.80;99.90;;;;;;5091581;28;20070;-44
2021/12/17 07:45:00;;;;;;;11.38;4.63;;;6.80;99.90;;;;;;5091588;28;20020;-43
2021/12/17 07:47:26;;;;;;;8.63;3.95;;;6.80;99.90;;;;;;5090856;28;20553;-43
2021/12/17 07:49:52;;;;;;;9.25;4.10;;;6.80;99.90;;;;;;5091439;28;20023;-43
2021/12/17 07:52:18;;;;;;;8.05;4.10;;;6.80;99.90;;;;;;5090221;28;20020;-43
2021/12/17 07:54:43;;;;;;;8.02;3.83;;;6.80;99.90;;;;;;5078982;28;20170;-42
2021/12/17 07:57:09;;;;;;;4.57;3.00;;;6.80;99.90;;;;;;5090365;28;20035;-43
2021/12/17 07:59:35;;;;;;;4.78;2.90;;;6.80;99.90;;;;;;5091303;28;20028;-43
2021/12/17 08:02:01;;;;;;;4.78;2.63;;;6.80;99.90;;;;;;5091499;28;20038;-43
2021/12/17 08:04:26;;;;;;;5.05;2.53;;;6.80;99.90;;;;;;5091344;28;20061;-43
2021/12/17 08:06:52;;;;;;;6.15;3.00;;;6.80;99.90;;;;;;5091052;28;20031;-43
2021/12/17 08:09:19;;;;;;;5.53;2.88;;;6.80;99.90;;;;;;5090256;28;20514;-43
2021/12/17 08:11:45;;;;;;;6.22;3.08;;;6.80;99.90;;;;;;5091042;28;20020;-43
2021/12/17 08:14:15;;;;;;;6.43;3.05;;;6.80;99.90;;;;;;5089559;28;20024;-43
2021/12/17 08:16:48;;;;;;;7.20;3.70;;;6.80;99.90;;;;;;5089591;28;20027;-44
2021/12/17 08:24:52;;;;;;;7.15;3.53;;;6.80;99.90;;;;;;5079337;28;20111;-44
2021/12/17 08:27:48;;;;;;;6.10;2.78;;;6.80;99.90;;;;;;5050196;28;20021;-43
2021/12/17 08:32:39;;;;;;;5.35;2.80;;;6.80;99.90;;;;;;5050840;28;20101;-44
2021/12/17 08:35:06;;;;;;;9.32;3.55;;;6.80;99.90;;;;;;5050766;28;20087;-42
2021/12/17 08:37:32;;;;;;;6.43;3.42;;;6.80;99.90;;;;;;5082537;28;20049;-42
2021/12/17 08:39:58;;;;;;;5.82;3.47;;;6.80;99.90;;;;;;5050404;28;20057;-43
2021/12/17 08:42:24;;;;;;;7.03;3.10;;;6.80;99.90;;;;;;5051003;28;20064;-43
2021/12/17 08:44:49;;;;;;;8.85;3.45;;;6.90;99.90;;;;;;5051010;28;20036;-43
2021/12/17 08:47:15;;;;;;;6.65;3.28;;;6.90;99.90;;;;;;5049996;28;20449;-43
2021/12/17 08:49:41;;;;;;;4.72;3.03;;;6.90;99.90;;;;;;5050163;28;20475;-43
2021/12/17 08:52:08;;;;;;;4.20;2.65;;;6.90;99.90;;;;;;5050145;28;20083;-44
2021/12/17 08:54:34;;;;;;;6.70;3.45;;;7.00;99.90;;;;;;5076575;28;20039;-43
2021/12/17 08:56:59;;;;;;;4.38;2.83;;;6.90;99.90;;;;;;5087730;28;20044;-43
2021/12/17 08:59:27;;;;;;;6.05;3.50;;;6.90;99.90;;;;;;5088309;28;20107;-43
2021/12/17 09:01:52;;;;;;;6.95;3.53;;;7.00;99.90;;;;;;5090393;28;20106;-43
2021/12/17 09:04:18;;;;;;;5.85;3.15;;;7.00;99.90;;;;;;5090211;28;20120;-43
2021/12/17 09:06:43;;;;;;;5.93;3.00;;;7.00;99.90;;;;;;5090279;28;20036;-43
2021/12/17 09:09:09;;;;;;;4.22;3.00;;;7.10;99.90;;;;;;5089543;28;20036;-43
2021/12/17 09:11:35;;;;;;;5.75;2.85;;;7.20;99.90;;;;;;5067117;28;20024;-44
2021/12/17 09:14:02;;;;;;;4.82;2.88;;;7.20;99.90;;;;;;5069600;28;20057;-44
2021/12/17 09:16:28;;;;;;;5.68;3.60;;;7.20;99.90;;;;;;5069909;28;20108;-44
2021/12/17 09:18:54;;;;;;;5.25;3.30;;;7.30;99.90;;;;;;5068963;28;20549;-43
2021/12/17 09:21:20;;;;;;;5.00;3.50;;;7.30;99.90;;;;;;5069564;28;20474;-43
2021/12/17 09:23:47;;;;;;;7.10;3.42;;;7.30;99.90;;;;;;5076836;28;20028;-43
2021/12/17 09:26:14;;;;;;;6.53;4.03;;;7.30;99.90;;;;;;5081366;28;20035;-43
2021/12/17 09:28:40;;;;;;;5.97;3.65;;;7.40;99.90;;;;;;5089366;28;20486;-43
2021/12/17 09:31:11;;;;;;;6.38;3.47;;;7.40;99.90;;;;;;5090235;28;20029;-43
2021/12/17 09:33:37;;;;;;;;;;;7.40;99.90;;;;;;5090291;28;20020;-43
2021/12/17 09:36:03;;;;;;;5.45;3.85;;;7.40;99.90;;;;;;5088717;28;19911;-43
2021/12/17 09:38:30;;;;;;;9.20;3.75;;;7.40;99.90;;;;;;5062945;28;20040;-43
2021/12/17 09:40:55;;;;;;;6.75;3.95;;;7.50;99.90;;;;;;5074015;28;20024;-43
2021/12/17 09:43:21;;;;;;;5.82;3.28;;;7.50;99.90;;;;;;5077321;28;20162;-43
2021/12/17 09:45:46;;;;;;;9.10;4.57;;;7.50;99.90;;;;;;5076310;28;20045;-44
2021/12/17 09:48:14;;;;;;;7.80;3.80;;;7.60;99.90;;;;;;5088203;28;20160;-44
2021/12/17 09:50:39;;;;;;;9.60;4.22;;;7.60;99.90;;;;;;5088392;28;20023;-43
2021/12/17 09:53:05;;;;;;;5.75;3.63;;;7.60;99.90;;;;;;5084828;28;20504;-43
2021/12/17 09:55:30;;;;;;;7.63;3.92;;;7.70;99.90;;;;;;5080594;28;20020;-44
2021/12/17 09:57:56;;;;;;;6.05;3.53;;;7.70;99.90;;;;;;5088326;28;20032;-45
2021/12/17 10:00:26;;;;;;;4.40;3.25;;;7.80;99.90;;;;;;5088533;28;20093;-44
2021/12/17 10:02:52;;;;;;;6.70;4.15;;;7.90;99.90;;;;;;5088842;28;20020;-43
2021/12/17 10:05:24;;;;;;;6.18;3.80;;;7.80;99.90;;;;;;5089177;28;20036;-43
2021/12/17 10:07:59;;;;;;;6.65;3.35;;;7.90;99.90;;;;;;5088300;28;20020;-44
2021/12/17 10:10:35;;;;;;;6.30;3.63;;;7.90;99.90;;;;;;5089129;28;20504;-44
2021/12/17 10:13:13;;;;;;;5.35;3.35;;;7.90;99.90;;;;;;5089303;28;20016;-43
2021/12/17 10:15:41;;;;;;;5.40;3.75;;;8.00;99.90;;;;;;5089495;28;20028;-44
2021/12/17 10:18:07;;;;;;;7.95;3.45;;;8.10;99.90;;;;;;5088362;28;20077;-44
2021/12/17 10:20:39;;;;;;;5.47;3.53;;;8.10;99.90;;;;;;5089229;28;20586;-43
2021/12/17 10:23:07;;;;;;;8.02;4.47;;;8.10;99.90;;;;;;5085690;28;20213;-45
2021/12/17 10:25:36;;;;;;;6.68;3.70;;;8.10;99.90;;;;;;5080314;28;20016;-41
2021/12/17 10:28:04;;;;;;;7.97;3.67;;;8.20;99.90;;;;;;5088068;28;20024;-42
2021/12/17 10:30:33;;;;;;;6.95;3.60;;;8.20;99.90;;;;;;5088859;28;20008;-42
2021/12/17 10:33:01;;;;;;;8.10;3.13;;;8.20;99.90;;;;;;5088834;28;20028;-43
2021/12/17 10:35:30;;;;;;;8.30;3.47;;;8.10;99.90;;;;;;5088761;28;20043;-43
2021/12/17 10:38:04;;;;;;;5.38;3.38;;;8.20;99.90;;;;;;5087778;28;20092;-43
2021/12/17 10:40:42;;;;;;;7.45;3.03;;;8.30;99.90;;;;;;5087374;28;20345;-42
2021/12/17 10:43:15;;;;;;;5.93;3.03;;;8.30;99.90;;;;;;5088847;28;20172;-42
2021/12/17 10:45:56;;;;;;;6.38;3.13;;;8.30;99.90;;;;;;5089025;28;20069;-42
2021/12/17 10:48:25;;;;;;;;;;;8.30;99.90;;;;;;5088493;28;20268;-43
2021/12/17 10:51:18;;;;;;;6.40;3.60;;;8.50;99.90;;;;;;5083958;28;19935;-42
2021/12/17 10:53:46;;;;;;;6.25;3.38;;;8.60;99.90;;;;;;5073907;28;20485;-43
2021/12/17 10:56:15;;;;;;;7.85;3.45;;;8.60;99.90;;;;;;5071979;28;20033;-42
2021/12/17 10:58:55;;;;;;;6.25;3.33;;;8.70;99.90;;;;;;5067529;28;20024;-44
2021/12/17 11:01:31;;;;;;;9.38;3.35;;;8.60;99.90;;;;;;5075258;28;20559;-43
2021/12/17 11:04:24;;;;;;;10.13;4.00;;;8.50;99.90;;;;;;5073159;28;20149;-42
2021/12/17 11:07:01;;;;;;;6.32;3.28;;;8.50;99.90;;;;;;5059593;28;20519;-42
2021/12/17 11:09:40;;;;;;;6.25;3.38;;;8.50;99.90;;;;;;5066477;28;20017;-43
2021/12/17 11:12:14;;;;;;;11.00;3.97;;;8.50;99.90;;;;;;5068493;28;20009;-42
2021/12/17 11:14:41;;;;;;;7.57;4.25;;;8.50;99.90;;;;;;5071817;28;20035;-42
2021/12/17 11:17:09;;;;;;;12.13;5.15;;;8.40;99.90;;;;;;5071607;28;20028;-42
2021/12/17 11:19:36;;;;;;;10.57;4.43;;;8.40;99.90;;;;;;5071157;28;20386;-42
2021/12/17 11:22:03;;;;;;;10.40;5.13;;;8.50;99.90;;;;;;5071651;28;20020;-42
2021/12/17 11:24:30;;;;;;;12.23;5.60;;;8.40;99.90;;;;;;5079617;28;20043;-42
2021/12/17 11:26:56;;;;;;;12.00;6.45;;;8.40;99.90;;;;;;5081961;28;20023;-43
2021/12/17 11:29:23;;;;;;;9.60;5.25;;;8.40;99.90;;;;;;5083456;28;20416;-42
2021/12/17 11:31:50;;;;;;;13.07;6.38;;;8.40;99.90;;;;;;5091938;28;20028;-43
2021/12/17 11:34:18;;;;;;;13.63;5.93;;;8.30;99.90;;;;;;5091625;28;20032;-42
2021/12/17 11:36:44;;;;;;;8.38;4.78;;;8.30;99.90;;;;;;5084278;28;20433;-42
2021/12/17 11:39:28;;;;;;;11.23;5.72;;;8.30;99.90;;;;;;5070086;28;20097;-43
2021/12/17 11:42:43;;;;;;;9.90;4.85;;;8.30;99.90;;;;;;5071166;28;20513;-42
2021/12/17 11:45:25;;;;;;;9.70;4.43;;;8.20;99.90;;;;;;5054783;28;20056;-43
2021/12/17 11:47:53;;;;;;;13.23;5.70;;;8.20;99.90;;;;;;5070863;28;20040;-43
2021/12/17 11:50:19;;;;;;;12.65;5.20;;;8.20;99.90;;;;;;5070863;28;20031;-45
2021/12/17 11:52:52;;;;;;;11.60;4.82;;;8.20;99.90;;;;;;5070382;28;20363;-43
2021/12/17 11:55:20;;;;;;;20.92;6.20;;;8.10;99.90;;;;;;5072169;28;20093;-43
2021/12/17 11:57:47;;;;;;;14.32;6.53;;;8.10;99.90;;;;;;5070488;28;20020;-42
2021/12/17 12:00:22;;;;;;;14.43;5.55;;;8.10;99.90;;;;;;5070997;28;20486;-45
2021/12/17 12:02:49;;;;;;;10.77;5.88;;;8.00;99.90;;;;;;5071238;28;20371;-43
2021/12/17 12:05:36;;;;;;;11.13;5.38;;;8.10;99.90;;;;;;5070177;28;20024;-43
2021/12/17 12:08:23;;;;;;;15.75;5.70;;;8.00;99.90;;;;;;5070047;28;20247;-43
2021/12/17 12:11:11;;;;;;;10.05;5.25;;;8.00;99.90;;;;;;5070950;28;20413;-43
2021/12/17 12:13:38;;;;;;;13.90;5.38;;;8.00;99.90;;;;;;5070570;28;20025;-43
2021/12/17 12:16:06;;;;;;;13.45;4.93;;;8.10;99.90;;;;;;5070649;28;20033;-42
2021/12/17 12:18:50;;;;;;;13.77;5.13;;;8.00;99.90;;;;;;5069857;28;20055;-42
2021/12/17 12:21:24;;;;;;;12.43;5.00;;;8.10;99.90;;;;;;5068922;28;20040;-43
2021/12/17 12:23:57;;;;;;;10.05;4.82;;;8.10;99.90;;;;;;5077734;28;20585;-46
2021/12/17 12:26:32;;;;;;;6.93;4.80;;;8.00;99.90;;;;;;5074603;28;20107;-44
2021/12/17 12:29:03;;;;;;;9.90;4.60;;;7.90;99.90;;;;;;5088802;28;20565;-42
2021/12/17 12:31:32;;;;;;;;;;;7.90;99.90;;;;;;5081019;28;20107;-43
2021/12/17 12:34:04;;;;;;;13.07;3.67;;;7.80;99.90;;;;;;5069991;28;19987;-43
2021/12/17 12:37:06;;;;;;;9.18;3.95;;;7.90;99.90;;;;;;5070096;28;20036;-42
2021/12/17 12:40:02;;;;;;;11.05;4.05;;;7.90;99.90;;;;;;5069172;28;20040;-43
2021/12/17 12:42:35;;;;;;;8.43;4.20;;;7.90;99.90;;;;;;5069850;28;20171;-43
2021/12/17 12:45:05;;;;;;;11.63;3.33;;;7.90;99.90;;;;;;5068656;28;20444;-43
2021/12/17 12:47:41;;;;;;;8.87;2.93;;;7.90;99.90;;;;;;5069037;28;20032;-42
2021/12/17 12:50:08;;;;;;;6.93;2.72;;;7.90;99.90;;;;;;5069871;28;20296;-43
2021/12/17 12:52:45;;;;;;;6.72;3.00;;;7.90;99.90;;;;;;5068761;28;20028;-42
2021/12/17 12:55:17;;;;;;;6.82;2.70;;;8.00;99.90;;;;;;5070620;28;20486;-43
2021/12/17 12:57:48;;;;;;;5.22;2.80;;;7.90;99.90;;;;;;5071300;28;20028;-43
2021/12/17 13:00:57;;;;;;;8.20;3.08;;;8.00;99.90;;;;;;5067699;28;20115;-43
2021/12/17 13:03:25;;;;;;;7.82;2.78;;;7.90;99.90;;;;;;5067369;28;20050;-44
2021/12/17 13:05:50;;;;;;;6.78;2.85;;;7.90;99.90;;;;;;5066021;28;20290;-43
2021/12/17 13:08:19;;;;;;;5.82;2.78;;;7.90;99.90;;;;;;5067444;28;20019;-42
2021/12/17 13:10:50;;;;;;;6.75;2.65;;;7.90;99.90;;;;;;5066606;28;20044;-43
2021/12/17 13:24:13;;;;;;;7.90;3.70;;;7.70;99.90;;;;;;5081444;28;20166;-42
2021/12/17 13:26:46;;;;;;;4.05;2.58;;;7.70;99.90;;;;;;5075817;28;20270;-43
2021/12/17 13:29:16;;;;;;;6.90;2.67;;;7.70;99.90;;;;;;5058753;28;20512;-43
2021/12/17 13:31:59;;;;;;;6.57;3.28;;;7.70;99.90;;;;;;5060280;28;20031;-43
2021/12/17 13:34:47;;;;;;;6.50;3.10;;;7.70;99.90;;;;;;5050949;28;20027;-43
2021/12/17 13:37:18;;;;;;;5.45;3.05;;;7.80;99.90;;;;;;5072770;28;20129;-42
2021/12/17 13:39:58;;;;;;;5.75;3.20;;;7.70;99.90;;;;;;5072036;28;20035;-44
2021/12/17 13:42:38;;;;;;;7.40;3.60;;;7.70;99.90;;;;;;5076838;28;20024;-43
2021/12/17 13:45:20;;;;;;;6.53;3.05;;;7.70;99.90;;;;;;5067659;28;20498;-42
2021/12/17 13:47:53;;;;;;;5.07;2.50;;;7.70;99.90;;;;;;5068250;28;20150;-43
2021/12/17 13:50:33;;;;;;;6.10;3.05;;;7.60;99.90;;;;;;5066487;28;20027;-42
2021/12/17 13:53:16;;;;;;;7.05;2.45;;;7.60;99.90;;;;;;5066277;28;20403;-42
2021/12/17 13:55:45;;;;;;;4.63;2.13;;;7.60;99.90;;;;;;5074461;28;20509;-41
2021/12/17 13:58:16;;;;;;;5.75;2.00;;;7.50;99.90;;;;;;5071725;28;20039;-41
2021/12/17 14:00:46;;;;;;;4.00;2.22;;;7.50;99.90;;;;;;5067610;28;20056;-41
2021/12/17 14:03:14;;;;;;;5.32;2.45;;;7.50;99.90;;;;;;5067043;28;20021;-42
2021/12/17 14:05:44;;;;;;;3.42;1.95;;;7.50;99.90;;;;;;5067662;28;20029;-42
2021/12/17 14:08:15;;;;;;;3.00;2.35;;;7.50;99.90;;;;;;5066972;28;20017;-42
2021/12/17 14:10:42;;;;;;;4.40;2.00;;;7.50;99.90;;;;;;5065798;28;20047;-43
2021/12/17 14:13:18;;;;;;;4.18;1.90;;;7.40;99.90;;;;;;5065879;28;20020;-42
2021/12/17 14:15:45;;;;;;;5.57;1.95;;;7.40;99.90;;;;;;5066008;28;20103;-42
2021/12/17 14:18:15;;;;;;;6.18;2.20;;;7.40;99.90;;;;;;5065345;28;20031;-42
2021/12/17 14:20:44;;;;;;;5.85;2.45;;;7.40;99.90;;;;;;5065952;28;20016;-41
2021/12/17 14:23:39;;;;;;;8.32;2.53;;;7.40;99.90;;;;;;5063642;28;20041;-43
2021/12/17 14:26:07;;;;;;;5.57;3.42;;;7.40;99.90;;;;;;5067847;28;20293;-42
2021/12/17 14:28:36;;;;;;;5.00;2.35;;;7.40;99.90;;;;;;5068561;28;20377;-45
2021/12/17 14:31:15;;;;;;;6.22;2.10;;;7.40;99.90;;;;;;5066559;28;20453;-42
2021/12/17 14:33:44;;;;;;;4.93;2.38;;;7.40;99.90;;;;;;5064858;28;20179;-43
2021/12/17 14:36:16;;;;;;;7.85;2.80;;;7.30;99.90;;;;;;5066194;28;20029;-42
2021/12/17 14:38:44;;;;;;;7.93;2.72;;;7.40;99.90;;;;;;5065676;28;20060;-42
2021/12/17 14:41:41;;;;;;;6.60;2.45;;;7.40;99.90;;;;;;5067430;28;20062;-42
2021/12/17 14:44:23;;;;;;;4.90;2.47;;;7.40;99.90;;;;;;5067069;28;20460;-42
2021/12/17 14:46:55;;;;;;;6.78;2.80;;;7.30;99.90;;;;;;5070338;28;20059;-43
2021/12/17 14:57:14;;;;;;;3.72;2.35;;;7.30;99.90;;;;;;5080595;28;20016;-42
2021/12/17 15:03:40;;;;;;;6.82;3.60;;;7.20;99.90;;;;;;5093769;28;20210;-42
2021/12/17 15:06:07;;;;;;;9.90;3.78;;;7.30;99.90;;;;;;5093758;28;20036;-42
2021/12/17 15:08:32;;;;;;;6.78;3.28;;;7.20;99.90;;;;;;5093135;28;20417;-41
2021/12/17 15:11:02;;;;;;;7.53;4.40;;;7.20;99.90;;;;;;5093571;28;20396;-42
2021/12/17 15:13:28;;;;;;;6.20;3.80;;;7.20;99.90;;;;;;5092574;28;20510;-42
2021/12/17 15:15:54;;;;;;;8.43;4.20;;;7.20;99.90;;;;;;5093982;28;20127;-41
2021/12/17 15:18:20;;;;;;;9.85;4.57;;;7.20;99.90;;;;;;5091946;28;20080;-42
2021/12/17 15:20:52;;;;;;;12.15;4.93;;;7.20;99.90;;;;;;5092543;28;20118;-41
2021/12/17 15:23:18;;;;;;;12.05;4.28;;;7.20;99.90;;;;;;5092751;28;20028;-42
2021/12/17 15:25:45;;;;;;;13.18;5.35;;;7.20;99.90;;;;;;5081497;28;20382;-42
2021/12/17 15:28:14;;;;;;;10.82;4.78;;;7.20;99.90;;;;;;5092273;28;20111;-42
2021/12/17 15:30:43;;;;;;;9.82;5.22;;;7.20;99.90;;;;;;5093516;28;20049;-42
2021/12/17 15:33:10;;;;;;;16.33;5.80;;;7.20;99.90;;;;;;5092510;28;20020;-41
2021/12/17 15:35:36;;;;;;;11.10;4.68;;;7.20;99.90;;;;;;5093870;28;20123;-43
2021/12/17 15:38:04;;;;;;;13.13;5.88;;;7.20;99.90;;;;;;5092990;28;20142;-42
2021/12/17 15:40:30;;;;;;;11.93;5.85;;;7.20;99.90;;;;;;5092072;28;20032;-42
2021/12/17 15:43:02;;;;;;;13.30;6.05;;;7.20;99.90;;;;;;5093588;28;20253;-42
2021/12/17 15:45:29;;;;;;;17.20;6.90;;;7.20;99.90;;;;;;5093656;28;20398;-42
2021/12/17 15:47:54;;;;;;;12.90;6.63;;;7.30;99.90;;;;;;5093097;28;20012;-42
2021/12/17 15:50:20;;;;;;;13.93;6.20;;;7.30;99.90;;;;;;5093778;28;20032;-42
2021/12/17 15:52:45;;;;;;;16.13;7.07;;;7.30;99.90;;;;;;5093444;28;20027;-43
2021/12/17 15:55:17;;;;;;;17.60;7.97;;;7.30;99.90;;;;;;5084394;28;20089;-42
2021/12/17 15:57:44;;;;;;;13.63;6.55;;;7.30;99.90;;;;;;5086274;28;20485;-41
2021/12/17 16:00:11;;;;;;;13.65;6.20;;;7.30;99.90;;;;;;5090449;28;20107;-41
2021/12/17 16:02:40;;;;;;;18.95;6.57;;;7.30;99.90;;;;;;5088844;28;20035;-41
2021/12/17 16:05:08;;;;;;;15.02;7.28;;;7.30;99.90;;;;;;5089886;28;20024;-41
2021/12/17 16:07:34;;;;;;;17.33;7.13;;;7.30;99.90;;;;;;5081019;28;20062;-41
2021/12/17 16:10:48;;;;;;;19.17;7.88;;;7.30;99.90;;;;;;5070100;28;20447;-41
2021/12/17 16:18:40;;;;;;;16.63;6.65;;;7.40;99.90;;;;;;5068377;28;20518;-41
2021/12/17 16:21:04;;;;;;;19.55;7.68;;;7.40;99.90;;;;;;5069149;28;20035;-42